Whitelaw, New York
Current Conditions -  °F | °C
As of 4:54 PM on Tuesday 25 Nov 2014 (Local Time) from KSYR Reporting Station
Scattered Clouds Scattered Clouds  
Wind Chill: 38°   Ceiling: Unl
Heat Index: 44°   Visibility: 10mi
Dew Point: 26°   Wind: 12mph
Humidity: 49%   Direction: 280°W
Pressure: 30"   Gusts: 20mph
Location:  43.0803°N, 75.7643°W
Report Text: KSYR 252154Z 28010G17KT 10SM FEW065 SCT200 07/M03 A3000 RMK AO2 SLP158 T00671033
Loading
Personal Weather Stations






























Interactive Weather Map New forecast layout! Learn more

10-Day Weather Forecast

Advertisements
Track Severe Weather on mobile